Time;durP1;ratioP1;P1;durP2;ratioP2;P2;SDS_P1;SDS_P2;PMS_P1;PMS_P2;Temp;Humidity;BMP_temperature;BMP_pressure;BME280_temperature;BME280_humidity;BME280_pressure;Samples;Min_cycle;Max_cycle;Signal;HPM_P1;HPM_P2
2021/12/01 00:00:48;;;;;;;1.80;1.60;;;17.10;51.50;;;;;;5066055;28;20033;-39
2021/12/01 00:03:14;;;;;;;4.68;1.65;;;17.10;51.70;;;;;;5068003;28;20065;-39
2021/12/01 00:05:40;;;;;;;3.67;1.67;;;17.10;51.70;;;;;;5056832;28;20482;-38
2021/12/01 00:08:07;;;;;;;2.00;1.50;;;17.10;51.70;;;;;;5067506;28;20049;-39
2021/12/01 00:10:34;;;;;;;3.08;1.73;;;17.00;51.60;;;;;;5066242;28;20528;-38
2021/12/01 00:13:05;;;;;;;8.77;1.50;;;17.00;51.70;;;;;;5048871;28;20494;-40
2021/12/01 00:15:31;;;;;;;2.92;1.73;;;17.00;52.80;;;;;;5068700;28;20052;-41
2021/12/01 00:17:57;;;;;;;3.58;1.38;;;17.00;51.80;;;;;;5065716;28;20088;-39
2021/12/01 00:20:23;;;;;;;2.95;1.73;;;17.00;51.80;;;;;;5067061;28;20079;-40
2021/12/01 00:22:49;;;;;;;3.72;1.67;;;16.90;51.80;;;;;;5065881;28;20498;-39
2021/12/01 00:25:19;;;;;;;3.25;1.60;;;16.90;51.90;;;;;;5048924;28;20044;-40
2021/12/01 00:27:46;;;;;;;3.83;1.70;;;16.90;51.90;;;;;;5066363;28;20521;-38
2021/12/01 00:30:12;;;;;;;2.63;1.38;;;16.90;52.00;;;;;;5066832;28;20056;-39
2021/12/01 00:32:38;;;;;;;1.90;1.58;;;16.90;51.90;;;;;;5067042;28;20044;-38
2021/12/01 00:35:05;;;;;;;1.98;1.33;;;16.90;52.00;;;;;;5084939;28;20046;-41
2021/12/01 00:37:31;;;;;;;3.42;1.67;;;16.80;51.90;;;;;;5087190;28;20043;-40
2021/12/01 00:39:57;;;;;;;4.43;1.42;;;16.80;52.00;;;;;;5077517;28;20393;-40
2021/12/01 00:42:23;;;;;;;1.98;1.42;;;16.80;52.00;;;;;;5087038;28;20044;-41
2021/12/01 00:44:55;;;;;;;3.13;1.20;;;16.80;52.00;;;;;;5079505;28;20507;-38
2021/12/01 00:47:30;;;;;;;1.98;1.20;;;16.80;52.00;;;;;;5086554;28;20056;-38
2021/12/01 00:49:55;;;;;;;2.50;1.10;;;16.80;52.10;;;;;;5087249;28;20040;-38
2021/12/01 00:52:21;;;;;;;2.60;1.85;;;16.80;52.10;;;;;;5084110;28;20047;-39
2021/12/01 00:54:47;;;;;;;2.47;1.13;;;16.80;52.10;;;;;;5081726;28;20041;-39
2021/12/01 00:57:13;;;;;;;2.33;1.30;;;16.70;52.00;;;;;;5076781;28;20547;-40
2021/12/01 00:59:39;;;;;;;1.42;1.30;;;16.80;52.10;;;;;;5086657;28;20389;-40
2021/12/01 01:02:04;;;;;;;2.13;1.20;;;16.70;52.10;;;;;;5080134;28;20047;-38
2021/12/01 01:04:30;;;;;;;1.83;1.27;;;16.70;52.10;;;;;;5084981;28;20047;-38
2021/12/01 01:06:56;;;;;;;1.88;1.20;;;16.70;52.10;;;;;;5076772;28;20048;-38
2021/12/01 01:09:23;;;;;;;2.35;1.10;;;16.70;52.10;;;;;;5072233;28;20055;-38
2021/12/01 01:20:05;;;;;;;2.15;1.02;;;16.70;52.00;;;;;;5081449;28;20037;-38
2021/12/01 01:22:30;;;;;;;1.20;1.10;;;16.70;52.00;;;;;;5076120;28;20043;-38
2021/12/01 01:24:56;;;;;;;2.25;1.23;;;16.70;52.00;;;;;;5086816;28;20032;-39
2021/12/01 01:27:24;;;;;;;2.33;1.40;;;16.70;52.00;;;;;;5079578;28;20040;-39
2021/12/01 01:29:49;;;;;;;2.03;1.00;;;16.70;52.10;;;;;;5070862;28;20537;-39
2021/12/01 01:32:15;;;;;;;1.02;1.00;;;16.70;51.90;;;;;;5082457;28;20417;-39
2021/12/01 01:34:41;;;;;;;2.25;1.40;;;16.60;51.80;;;;;;5084590;28;20067;-39
2021/12/01 01:37:07;;;;;;;1.40;1.30;;;16.60;51.90;;;;;;5078252;28;20123;-38
2021/12/01 01:39:32;;;;;;;1.02;0.98;;;16.60;51.80;;;;;;5076115;28;20520;-38
2021/12/01 01:41:58;;;;;;;1.65;1.20;;;16.70;51.80;;;;;;5070853;28;20079;-38
2021/12/01 01:44:24;;;;;;;2.53;1.13;;;16.60;51.70;;;;;;5075451;28;20052;-39
2021/12/01 01:46:50;;;;;;;3.65;1.30;;;16.70;51.80;;;;;;5065228;28;20052;-38
2021/12/01 01:49:18;;;;;;;1.27;1.10;;;16.60;51.70;;;;;;5071063;28;20040;-39
2021/12/01 01:51:48;;;;;;;3.47;1.27;;;16.70;51.80;;;;;;5086831;28;20416;-40
2021/12/01 01:54:15;;;;;;;1.50;1.10;;;16.70;51.80;;;;;;5089774;28;20036;-38
2021/12/01 01:56:43;;;;;;;1.80;1.02;;;16.60;51.70;;;;;;5089125;28;20040;-38
2021/12/01 01:59:09;;;;;;;1.52;1.00;;;16.60;51.70;;;;;;5079059;28;20059;-38
2021/12/01 02:01:44;;;;;;;3.17;1.00;;;16.60;51.70;;;;;;5082541;28;20709;-39
2021/12/01 02:04:15;;;;;;;0.93;0.93;;;16.60;51.70;;;;;;5087943;28;20044;-40
2021/12/01 02:06:41;;;;;;;1.38;1.10;;;16.60;51.70;;;;;;5088149;28;20079;-38
2021/12/01 02:09:08;;;;;;;1.73;0.93;;;16.60;51.70;;;;;;5079981;28;20056;-39
2021/12/01 02:11:34;;;;;;;2.20;1.60;;;16.60;51.70;;;;;;5078851;28;20044;-38
2021/12/01 02:14:00;;;;;;;4.43;1.30;;;16.60;51.70;;;;;;5088868;28;20044;-39
2021/12/01 02:16:27;;;;;;;0.88;0.88;;;16.60;51.60;;;;;;5089729;28;20036;-38
2021/12/01 02:18:54;;;;;;;1.60;0.73;;;16.60;51.60;;;;;;5079724;28;20119;-39
2021/12/01 02:21:30;;;;;;;3.95;1.10;;;16.60;51.50;;;;;;5087858;28;20028;-39
2021/12/01 02:23:59;;;;;;;2.47;1.10;;;16.60;51.60;;;;;;5087247;28;20060;-39
2021/12/01 02:26:27;;;;;;;1.35;0.80;;;16.60;51.60;;;;;;5089131;28;20062;-39
2021/12/01 02:28:55;;;;;;;1.65;0.80;;;16.60;51.50;;;;;;5087621;28;20044;-38
2021/12/01 02:31:25;;;;;;;2.08;1.50;;;16.60;51.50;;;;;;5087562;28;20502;-38
2021/12/01 02:33:51;;;;;;;1.63;1.20;;;16.60;51.50;;;;;;5089776;28;20080;-39
2021/12/01 02:36:17;;;;;;;1.42;0.98;;;16.60;51.60;;;;;;5087912;28;20054;-39
2021/12/01 02:38:45;;;;;;;0.98;0.98;;;16.60;51.50;;;;;;5089042;28;20115;-39
2021/12/01 02:41:12;;;;;;;1.23;1.05;;;16.60;51.60;;;;;;5073968;28;20113;-38
2021/12/01 02:43:38;;;;;;;1.45;1.00;;;16.60;51.50;;;;;;5088530;28;20495;-38
2021/12/01 02:46:04;;;;;;;0.85;0.82;;;16.60;51.50;;;;;;5077213;28;20052;-39
2021/12/01 02:48:30;;;;;;;1.27;1.08;;;16.60;51.50;;;;;;5084226;28;20048;-40
2021/12/01 02:50:58;;;;;;;0.70;0.70;;;16.60;51.50;;;;;;5087190;28;20115;-39
2021/12/01 02:53:25;;;;;;;1.08;0.98;;;16.60;51.50;;;;;;5087930;28;20040;-38
2021/12/01 02:56:01;;;;;;;1.15;0.93;;;16.60;51.50;;;;;;5082139;28;20068;-39
2021/12/01 02:58:31;;;;;;;1.13;0.80;;;16.60;51.50;;;;;;5066001;28;20128;-38
2021/12/01 03:01:00;;;;;;;1.92;1.00;;;16.50;51.50;;;;;;5084667;28;20036;-39
2021/12/01 03:03:26;;;;;;;4.65;1.20;;;16.50;51.50;;;;;;5077719;28;20543;-39
2021/12/01 03:05:52;;;;;;;1.50;0.95;;;16.50;51.90;;;;;;5073635;28;20076;-38
2021/12/01 03:08:19;;;;;;;1.20;0.80;;;16.60;52.10;;;;;;5069170;28;20056;-39
2021/12/01 03:10:47;;;;;;;2.53;0.82;;;16.50;51.90;;;;;;5067412;28;20499;-38
2021/12/01 03:13:15;;;;;;;1.42;0.88;;;16.50;51.90;;;;;;5089216;28;20040;-38
2021/12/01 03:15:41;;;;;;;2.25;0.80;;;16.50;51.80;;;;;;5085793;28;20463;-40
2021/12/01 03:18:08;;;;;;;1.85;0.90;;;16.50;51.90;;;;;;5088446;28;20501;-39
2021/12/01 03:20:33;;;;;;;2.13;0.80;;;16.50;51.80;;;;;;5088130;28;20040;-38
2021/12/01 03:22:59;;;;;;;1.20;1.00;;;16.50;51.80;;;;;;5083121;28;20121;-40
2021/12/01 03:25:27;;;;;;;1.15;0.70;;;16.50;51.80;;;;;;5076828;28;20122;-40
2021/12/01 03:27:53;;;;;;;1.60;0.63;;;16.50;51.80;;;;;;5086578;28;20107;-39
2021/12/01 03:30:19;;;;;;;2.03;0.80;;;16.40;51.80;;;;;;5087181;28;20490;-39
2021/12/01 03:32:45;;;;;;;0.77;0.77;;;16.40;51.80;;;;;;5085684;28;20048;-41
2021/12/01 03:35:13;;;;;;;0.63;0.63;;;16.50;51.80;;;;;;5087335;28;20055;-39
2021/12/01 03:37:41;;;;;;;2.33;0.70;;;16.40;51.80;;;;;;5087414;28;20044;-40
2021/12/01 03:40:08;;;;;;;0.80;0.80;;;16.40;51.80;;;;;;5087420;28;20071;-40
2021/12/01 03:42:34;;;;;;;0.80;0.80;;;16.50;51.90;;;;;;5088235;28;20051;-38
2021/12/01 03:45:00;;;;;;;0.50;0.50;;;16.40;51.80;;;;;;5083590;28;20040;-39
2021/12/01 03:47:27;;;;;;;0.80;0.80;;;16.40;51.80;;;;;;5075863;28;20067;-38
2021/12/01 03:49:54;;;;;;;0.68;0.68;;;16.40;51.80;;;;;;5070668;28;20040;-38
2021/12/01 03:52:21;;;;;;;1.02;0.70;;;16.40;51.80;;;;;;5088365;28;20123;-39
2021/12/01 03:54:47;;;;;;;0.88;0.60;;;16.40;51.80;;;;;;5087121;28;20539;-38
2021/12/01 03:57:14;;;;;;;1.85;0.73;;;16.40;51.80;;;;;;5083717;28;20028;-38
2021/12/01 03:59:41;;;;;;;1.25;0.90;;;16.40;51.80;;;;;;5073242;28;20048;-38
2021/12/01 04:02:07;;;;;;;1.38;0.77;;;16.40;51.80;;;;;;5077617;28;20071;-42
2021/12/01 04:04:33;;;;;;;0.75;0.70;;;16.40;51.70;;;;;;5079793;28;20064;-40
2021/12/01 04:06:59;;;;;;;5.05;0.77;;;16.40;51.70;;;;;;5063927;28;20100;-38
2021/12/01 04:09:26;;;;;;;7.03;1.08;;;16.40;53.10;;;;;;5076154;28;20044;-43
2021/12/01 04:11:52;;;;;;;7.90;0.70;;;16.50;52.60;;;;;;5080676;28;20040;-38
2021/12/01 04:14:18;;;;;;;15.32;0.90;;;16.40;52.40;;;;;;5082319;28;20036;-41
2021/12/01 04:16:45;;;;;;;2.33;0.82;;;16.50;52.20;;;;;;5084199;28;20489;-39
2021/12/01 04:19:10;;;;;;;0.50;0.50;;;16.40;52.00;;;;;;5084228;28;20052;-39
2021/12/01 04:21:37;;;;;;;6.70;0.63;;;16.40;52.00;;;;;;5081252;28;20036;-38
2021/12/01 04:24:03;;;;;;;0.82;0.57;;;16.40;51.90;;;;;;5083071;28;20836;-38
2021/12/01 04:26:32;;;;;;;0.88;0.70;;;16.40;51.80;;;;;;5081471;28;20040;-38
2021/12/01 04:28:58;;;;;;;1.38;0.60;;;16.40;51.80;;;;;;5083656;28;20053;-38
2021/12/01 04:31:25;;;;;;;0.50;0.50;;;16.40;51.80;;;;;;5083392;28;20463;-38
2021/12/01 04:33:51;;;;;;;1.33;0.77;;;16.40;51.80;;;;;;5079899;28;20101;-38
2021/12/01 04:36:17;;;;;;;0.55;0.55;;;16.40;51.80;;;;;;5082270;28;20036;-38
2021/12/01 04:38:44;;;;;;;0.98;0.70;;;16.40;51.80;;;;;;5056861;28;20082;-38
2021/12/01 04:41:13;;;;;;;2.83;0.80;;;16.40;51.80;;;;;;5068075;28;20063;-38
2021/12/01 04:43:38;;;;;;;0.55;0.55;;;16.40;51.70;;;;;;5066310;28;20152;-41
2021/12/01 04:46:05;;;;;;;3.53;0.73;;;16.40;51.60;;;;;;5065557;28;20132;-38
2021/12/01 04:48:31;;;;;;;0.80;0.57;;;16.30;51.60;;;;;;5063058;28;20112;-39
2021/12/01 04:50:58;;;;;;;0.93;0.60;;;16.40;51.70;;;;;;5064627;28;20072;-38
2021/12/01 04:53:25;;;;;;;2.03;0.65;;;16.40;51.60;;;;;;5065313;28;20067;-39
2021/12/01 04:55:52;;;;;;;2.92;0.52;;;16.30;51.60;;;;;;5066440;28;20449;-39
2021/12/01 04:58:18;;;;;;;1.02;0.77;;;16.40;51.70;;;;;;5065492;28;20041;-38
2021/12/01 05:00:44;;;;;;;0.47;0.43;;;16.30;51.70;;;;;;5066160;28;20402;-38
2021/12/01 05:03:10;;;;;;;0.52;0.52;;;16.30;51.70;;;;;;5065335;28;20057;-38
2021/12/01 05:05:37;;;;;;;0.80;0.63;;;16.30;51.70;;;;;;5065670;28;20045;-39
2021/12/01 05:08:03;;;;;;;0.50;0.50;;;16.30;51.70;;;;;;5065647;28;20044;-38
2021/12/01 05:10:29;;;;;;;0.57;0.57;;;16.30;51.70;;;;;;5064686;28;20482;-38
2021/12/01 05:12:55;;;;;;;0.73;0.68;;;16.30;51.70;;;;;;5083943;28;20089;-38
2021/12/01 05:15:21;;;;;;;2.30;0.60;;;16.30;51.80;;;;;;5072181;28;20401;-39
2021/12/01 05:17:47;;;;;;;0.65;0.65;;;16.30;51.70;;;;;;5081539;28;20126;-38
2021/12/01 05:20:13;;;;;;;1.85;0.80;;;16.30;51.70;;;;;;5076371;28;20041;-39
2021/12/01 05:22:39;;;;;;;0.70;0.40;;;16.30;51.80;;;;;;5067017;28;20041;-38
2021/12/01 05:25:05;;;;;;;0.63;0.60;;;16.30;51.80;;;;;;5079268;28;20405;-38
2021/12/01 05:27:32;;;;;;;0.90;0.50;;;16.30;51.80;;;;;;5080849;28;20123;-38
2021/12/01 05:29:58;;;;;;;0.85;0.45;;;16.30;51.90;;;;;;5089922;28;20048;-38
2021/12/01 05:32:25;;;;;;;0.60;0.60;;;16.20;51.80;;;;;;5077461;28;20505;-38
2021/12/01 05:34:51;;;;;;;1.08;0.40;;;16.20;51.80;;;;;;5073586;28;20039;-39
2021/12/01 05:37:16;;;;;;;0.50;0.50;;;16.20;51.80;;;;;;5076980;28;20032;-38
2021/12/01 05:39:45;;;;;;;1.67;0.50;;;16.20;51.90;;;;;;5071361;28;20047;-41
2021/12/01 05:42:12;;;;;;;5.88;0.95;;;16.20;51.90;;;;;;5087677;28;20412;-40
2021/12/01 05:44:39;;;;;;;0.50;0.50;;;16.20;51.90;;;;;;5088984;28;20136;-38
2021/12/01 05:47:06;;;;;;;0.57;0.55;;;16.20;51.90;;;;;;5080066;28;20515;-39
2021/12/01 05:49:32;;;;;;;0.43;0.43;;;16.20;52.00;;;;;;5088084;28;20123;-39
2021/12/01 05:51:59;;;;;;;1.85;0.70;;;16.20;51.90;;;;;;5088777;28;20048;-39
2021/12/01 05:54:25;;;;;;;0.32;0.32;;;16.20;52.00;;;;;;5088832;28;20072;-39
2021/12/01 05:56:51;;;;;;;0.52;0.52;;;16.20;51.90;;;;;;5074972;28;20110;-38
2021/12/01 05:59:17;;;;;;;0.70;0.47;;;16.20;51.90;;;;;;5088922;28;20458;-38
2021/12/01 06:01:42;;;;;;;0.32;0.32;;;16.20;51.90;;;;;;5083840;28;20169;-38
2021/12/01 06:04:08;;;;;;;0.32;0.32;;;16.20;52.00;;;;;;5088225;28;20044;-38
2021/12/01 06:06:34;;;;;;;0.88;0.50;;;16.20;51.90;;;;;;5085504;28;20052;-38
2021/12/01 06:08:59;;;;;;;0.30;0.30;;;16.20;52.00;;;;;;5078830;28;20539;-38
2021/12/01 06:11:25;;;;;;;0.77;0.45;;;16.10;51.90;;;;;;5075177;28;20075;-41
2021/12/01 06:13:52;;;;;;;0.85;0.43;;;16.20;52.00;;;;;;5089294;28;20051;-39
2021/12/01 06:16:23;;;;;;;0.40;0.40;;;16.10;51.90;;;;;;5069826;28;20536;-39
2021/12/01 06:18:50;;;;;;;0.30;0.30;;;16.10;51.90;;;;;;5080958;28;20058;-39
2021/12/01 06:21:16;;;;;;;0.40;0.40;;;16.10;52.00;;;;;;5071111;28;20076;-38
2021/12/01 06:23:42;;;;;;;0.40;0.40;;;16.10;51.90;;;;;;5078751;28;20181;-38
2021/12/01 06:26:08;;;;;;;0.30;0.30;;;16.10;51.90;;;;;;5088802;28;20081;-38
2021/12/01 06:28:34;;;;;;;0.63;0.60;;;16.10;52.00;;;;;;5069629;28;20089;-38
2021/12/01 06:31:00;;;;;;;0.52;0.30;;;16.10;51.90;;;;;;5064297;28;20036;-38
2021/12/01 06:33:25;;;;;;;1.50;0.60;;;16.10;51.90;;;;;;5087796;28;20040;-38
2021/12/01 06:35:52;;;;;;;0.40;0.40;;;16.10;51.90;;;;;;5088207;28;20424;-40
2021/12/01 06:38:19;;;;;;;1.00;0.43;;;16.10;52.00;;;;;;5072609;28;20090;-38
2021/12/01 06:40:48;;;;;;;0.30;0.30;;;16.10;52.00;;;;;;5079523;28;20425;-38
2021/12/01 06:43:14;;;;;;;0.40;0.40;;;16.10;51.90;;;;;;5088858;28;20083;-38
2021/12/01 06:45:40;;;;;;;0.60;0.50;;;16.10;52.00;;;;;;5086902;28;20121;-38
2021/12/01 06:48:06;;;;;;;0.52;0.38;;;16.10;52.00;;;;;;5080579;28;20336;-39
2021/12/01 06:50:33;;;;;;;0.28;0.28;;;16.10;52.10;;;;;;5086469;28;20512;-40
2021/12/01 06:52:59;;;;;;;0.30;0.30;;;16.00;52.10;;;;;;5089005;28;20437;-40
2021/12/01 06:55:25;;;;;;;0.40;0.40;;;16.10;52.20;;;;;;5087985;28;20038;-38
2021/12/01 06:57:51;;;;;;;0.38;0.38;;;16.10;52.30;;;;;;5086634;28;20036;-38
2021/12/01 07:00:19;;;;;;;0.30;0.30;;;16.20;52.20;;;;;;5082725;28;20041;-38
2021/12/01 07:02:45;;;;;;;0.30;0.30;;;16.20;52.10;;;;;;5076921;28;20052;-38
2021/12/01 07:05:11;;;;;;;0.77;0.32;;;16.30;51.80;;;;;;5088713;28;20048;-40
2021/12/01 07:07:39;;;;;;;0.30;0.30;;;16.40;51.60;;;;;;5085873;28;20521;-41
2021/12/01 07:10:07;;;;;;;1.05;0.50;;;16.50;51.30;;;;;;5075539;28;20425;-38
2021/12/01 07:12:33;;;;;;;0.20;0.20;;;16.60;50.80;;;;;;5083171;28;20131;-38
2021/12/01 07:14:58;;;;;;;0.20;0.20;;;16.80;51.00;;;;;;5088590;28;20138;-39
2021/12/01 07:17:24;;;;;;;0.30;0.30;;;16.90;50.60;;;;;;5086977;28;20051;-38
2021/12/01 07:19:50;;;;;;;0.38;0.38;;;17.00;50.30;;;;;;5076405;28;20490;-38
2021/12/01 07:22:16;;;;;;;0.30;0.30;;;17.10;50.10;;;;;;5077013;28;20124;-38
2021/12/01 07:24:44;;;;;;;0.75;0.30;;;17.20;49.70;;;;;;5084776;28;20113;-38
2021/12/01 07:27:10;;;;;;;0.30;0.30;;;17.30;49.50;;;;;;5086916;28;20044;-38
2021/12/01 07:29:36;;;;;;;0.22;0.20;;;17.40;49.30;;;;;;5084876;28;20055;-41
2021/12/01 07:32:04;;;;;;;0.22;0.20;;;17.50;49.00;;;;;;5068058;28;20040;-39
2021/12/01 07:34:29;;;;;;;0.47;0.30;;;17.50;48.70;;;;;;5066035;28;20501;-38
2021/12/01 07:36:55;;;;;;;0.30;0.30;;;17.60;48.60;;;;;;5087790;28;20040;-39
2021/12/01 07:39:21;;;;;;;0.20;0.20;;;17.70;48.40;;;;;;5088257;28;20052;-39
2021/12/01 07:41:47;;;;;;;0.20;0.20;;;17.70;48.30;;;;;;5075004;28;20031;-42
2021/12/01 07:44:13;;;;;;;0.30;0.30;;;17.70;49.20;;;;;;5086839;28;20067;-39
2021/12/01 07:46:39;;;;;;;0.25;0.25;;;17.80;48.00;;;;;;5086417;28;20486;-38
2021/12/01 07:49:05;;;;;;;0.20;0.20;;;17.80;47.90;;;;;;5052849;28;20088;-39
2021/12/01 07:51:32;;;;;;;0.30;0.30;;;17.80;47.90;;;;;;5074095;28;20509;-39
2021/12/01 07:53:58;;;;;;;0.20;0.20;;;17.80;47.80;;;;;;5087577;28;20036;-38
2021/12/01 07:56:24;;;;;;;0.32;0.20;;;17.80;47.90;;;;;;5087542;28;20122;-38
2021/12/01 07:58:49;;;;;;;0.10;0.10;;;17.80;47.90;;;;;;5087103;28;20047;-39
2021/12/01 08:01:15;;;;;;;0.20;0.20;;;17.80;47.90;;;;;;5081922;28;20036;-40
2021/12/01 08:03:41;;;;;;;0.20;0.20;;;17.80;47.90;;;;;;5064277;28;20135;-39
2021/12/01 08:06:07;;;;;;;0.30;0.30;;;17.70;47.90;;;;;;5066112;28;20052;-38
2021/12/01 08:08:32;;;;;;;0.30;0.30;;;17.70;48.00;;;;;;5064493;28;20476;-39
2021/12/01 08:10:58;;;;;;;0.40;0.30;;;17.70;48.00;;;;;;5071916;28;20497;-38
2021/12/01 08:13:24;;;;;;;0.10;0.10;;;17.70;48.00;;;;;;5048197;28;20089;-38
2021/12/01 08:15:50;;;;;;;0.20;0.20;;;17.70;48.00;;;;;;5067002;28;20806;-39
2021/12/01 08:18:17;;;;;;;0.25;0.25;;;17.60;48.00;;;;;;5067295;28;20045;-39
2021/12/01 08:20:43;;;;;;;0.40;0.20;;;17.60;48.00;;;;;;5071386;28;20040;-41
2021/12/01 08:23:09;;;;;;;0.20;0.20;;;17.70;48.00;;;;;;5066268;28;20391;-39
2021/12/01 08:25:36;;;;;;;0.20;0.20;;;17.70;47.90;;;;;;5065342;28;20055;-39
2021/12/01 08:28:03;;;;;;;0.20;0.20;;;17.70;47.90;;;;;;5078711;28;20087;-38
2021/12/01 08:30:29;;;;;;;0.38;0.30;;;17.70;48.00;;;;;;5081117;28;20070;-38
2021/12/01 08:32:55;;;;;;;1.27;0.20;;;17.70;48.00;;;;;;5080775;28;20047;-38
2021/12/01 08:35:21;;;;;;;0.13;0.13;;;17.70;47.90;;;;;;5080353;28;20032;-39
2021/12/01 08:37:47;;;;;;;0.25;0.20;;;17.70;47.90;;;;;;5084816;28;20039;-39
2021/12/01 08:40:16;;;;;;;0.20;0.20;;;17.70;47.90;;;;;;5085584;28;20036;-40
2021/12/01 08:42:42;;;;;;;0.20;0.20;;;17.70;47.90;;;;;;5082876;28;20032;-38
2021/12/01 08:45:09;;;;;;;0.10;0.10;;;17.70;47.80;;;;;;5079021;28;20033;-39
2021/12/01 08:47:34;;;;;;;0.20;0.20;;;17.70;47.90;;;;;;5073802;28;20059;-38
2021/12/01 08:50:00;;;;;;;0.20;0.20;;;17.70;47.90;;;;;;5062440;28;20040;-39
2021/12/01 08:52:27;;;;;;;0.30;0.30;;;17.60;47.90;;;;;;5075235;28;20055;-40
2021/12/01 08:54:53;;;;;;;0.10;0.10;;;17.60;48.10;;;;;;5078644;28;20404;-39
2021/12/01 08:57:19;;;;;;;0.40;0.10;;;17.60;48.10;;;;;;5063238;28;20490;-40
2021/12/01 08:59:45;;;;;;;0.13;0.13;;;17.60;48.30;;;;;;5064095;28;20043;-39
2021/12/01 09:02:11;;;;;;;2.10;0.35;;;17.60;48.50;;;;;;5065916;28;20398;-39
2021/12/01 09:04:37;;;;;;;0.28;0.28;;;17.60;48.50;;;;;;5065156;28;20044;-38
2021/12/01 09:07:04;;;;;;;1.25;0.30;;;17.60;48.80;;;;;;5064293;28;20048;-39
2021/12/01 09:09:30;;;;;;;2.20;0.17;;;17.50;48.80;;;;;;5065512;28;20074;-38
2021/12/01 09:11:56;;;;;;;0.57;0.30;;;17.60;48.90;;;;;;5076990;28;20494;-39
2021/12/01 09:14:23;;;;;;;2.00;0.45;;;17.60;49.00;;;;;;5071993;28;20131;-38
2021/12/01 09:16:51;;;;;;;2.25;0.70;;;17.50;49.30;;;;;;5074610;28;20381;-38
2021/12/01 09:19:17;;;;;;;1.73;0.98;;;17.60;49.40;;;;;;5086415;28;20036;-39
2021/12/01 09:21:43;;;;;;;1.13;0.77;;;17.60;49.40;;;;;;5080811;28;20505;-39
2021/12/01 09:24:09;;;;;;;0.47;0.47;;;17.60;49.40;;;;;;5080179;28;20048;-38
2021/12/01 09:26:36;;;;;;;0.75;0.60;;;17.70;49.50;;;;;;5075235;28;20078;-39
2021/12/01 09:29:03;;;;;;;9.95;1.15;;;17.70;49.40;;;;;;5080407;28;20032;-41
2021/12/01 09:31:30;;;;;;;1.25;0.63;;;17.70;49.20;;;;;;5067468;28;20037;-39
2021/12/01 09:33:56;;;;;;;1.73;0.75;;;17.70;49.20;;;;;;5082774;28;20082;-40
2021/12/01 09:36:22;;;;;;;2.92;0.63;;;17.70;49.20;;;;;;5076937;28;20478;-38
2021/12/01 09:38:48;;;;;;;9.13;0.65;;;17.70;49.30;;;;;;5043338;28;20040;-39
2021/12/01 09:41:14;;;;;;;3.10;0.50;;;17.60;49.30;;;;;;5078073;28;20137;-38
2021/12/01 09:43:41;;;;;;;9.07;0.70;;;17.60;49.40;;;;;;5094593;28;20478;-41
2021/12/01 09:46:09;;;;;;;4.57;1.65;;;17.60;49.40;;;;;;5078108;28;20382;-39
2021/12/01 09:48:36;;;;;;;2.67;0.43;;;17.60;49.90;;;;;;5076568;28;20101;-39
2021/12/01 09:51:02;;;;;;;8.82;0.75;;;17.50;49.90;;;;;;5078753;28;20056;-38
2021/12/01 09:53:28;;;;;;;5.97;0.80;;;17.50;49.70;;;;;;5078923;28;20051;-44
2021/12/01 09:55:54;;;;;;;11.48;1.08;;;17.50;51.40;;;;;;5082073;28;20059;-47
2021/12/01 09:58:24;;;;;;;5.30;0.95;;;17.50;51.90;;;;;;5082418;28;20036;-46
2021/12/01 10:00:52;;;;;;;11.43;0.93;;;17.50;50.20;;;;;;5065378;28;20462;-46
2021/12/01 10:03:18;;;;;;;7.60;0.80;;;17.60;49.70;;;;;;5065202;28;20048;-49
2021/12/01 10:15:01;;;;;;;10.15;1.38;;;14.10;49.90;;;;;;5000235;27;20368;-56
2021/12/01 10:17:34;;;;;;;4.10;1.25;;;13.30;53.10;;;;;;4849043;28;20048;-57
2021/12/01 10:20:15;;;;;;;7.22;1.08;;;12.50;56.40;;;;;;4997150;28;20043;-58
2021/12/01 10:23:05;;;;;;;4.40;1.13;;;11.80;59.60;;;;;;5063891;28;20052;-57
2021/12/01 10:25:31;;;;;;;4.57;0.82;;;11.30;62.10;;;;;;5051439;28;20114;-57
2021/12/01 10:27:56;;;;;;;3.55;1.05;;;10.80;64.00;;;;;;5064280;28;20571;-58
2021/12/01 10:30:43;;;;;;;4.05;1.05;;;10.50;65.50;;;;;;5063292;28;20044;-57
2021/12/01 10:33:13;;;;;;;8.15;1.42;;;10.20;66.90;;;;;;5061433;28;20044;-57
2021/12/01 10:35:40;;;;;;;7.00;1.40;;;10.00;68.00;;;;;;5030945;28;20036;-57
2021/12/01 10:38:08;;;;;;;10.93;1.80;;;9.80;68.60;;;;;;5061178;28;20041;-57
2021/12/01 10:40:36;;;;;;;11.90;2.30;;;9.70;68.70;;;;;;5065126;28;20047;-57
2021/12/01 10:43:07;;;;;;;13.35;1.95;;;9.60;69.20;;;;;;5046628;28;20049;-57
2021/12/01 10:45:47;;;;;;;15.13;2.10;;;9.50;69.40;;;;;;5064001;28;20115;-57
2021/12/01 11:30:21;;;;;;;12.70;1.73;;;9.40;68.70;;;;;;5095546;27;20433;-64
2021/12/01 11:32:47;;;;;;;9.82;2.00;;;9.40;69.00;;;;;;5101261;28;20063;-65
2021/12/01 11:35:13;;;;;;;12.57;1.90;;;9.30;68.00;;;;;;5026791;28;20465;-65
2021/12/01 11:37:39;;;;;;;6.40;0.82;;;9.40;68.40;;;;;;5052631;28;20049;-65
2021/12/01 11:40:08;;;;;;;2.50;0.90;;;9.30;68.80;;;;;;5040048;28;20048;-65
2021/12/01 11:42:34;;;;;;;4.78;1.20;;;9.30;69.60;;;;;;5014966;28;20045;-65
2021/12/01 11:45:01;;;;;;;14.10;1.35;;;9.30;69.60;;;;;;5049565;28;20052;-65
2021/12/01 11:47:27;;;;;;;4.43;1.05;;;9.30;69.40;;;;;;4993980;28;20045;-65
2021/12/01 11:49:57;;;;;;;5.30;1.23;;;9.20;69.50;;;;;;5042755;28;20490;-65
2021/12/01 11:52:41;;;;;;;12.65;1.75;;;9.10;69.80;;;;;;5013148;28;20124;-65
2021/12/01 11:55:07;;;;;;;20.20;4.38;;;9.00;70.60;;;;;;5047699;28;20138;-65
2021/12/01 11:57:41;;;;;;;16.70;3.67;;;8.90;71.50;;;;;;5040893;28;20045;-65
2021/12/01 12:00:09;;;;;;;14.13;2.47;;;8.70;68.60;;;;;;5042052;28;20428;-65
2021/12/01 12:02:36;;;;;;;18.00;4.35;;;8.60;67.30;;;;;;5047583;28;20103;-65
2021/12/01 12:05:15;;;;;;;13.70;2.95;;;8.50;66.90;;;;;;5038688;28;20051;-65
2021/12/01 12:07:44;;;;;;;21.30;2.70;;;8.30;68.50;;;;;;5043440;28;20070;-65
2021/12/01 12:10:22;;;;;;;16.67;2.88;;;8.20;68.00;;;;;;5050150;28;20095;-65
2021/12/01 12:13:02;;;;;;;19.20;2.75;;;8.20;67.30;;;;;;5042790;28;20123;-65
2021/12/01 12:15:37;;;;;;;19.10;4.65;;;8.30;66.40;;;;;;5051534;28;20052;-65
2021/12/01 12:18:04;;;;;;;15.48;2.95;;;8.30;66.00;;;;;;4982664;28;20098;-65
2021/12/01 12:20:34;;;;;;;16.38;3.05;;;8.30;65.20;;;;;;5049956;28;20056;-65
2021/12/01 12:23:04;;;;;;;25.23;4.15;;;8.30;66.00;;;;;;5057437;28;20406;-65
2021/12/01 12:25:57;;;;;;;15.82;2.58;;;8.30;65.50;;;;;;5060211;28;20128;-65
2021/12/01 12:28:33;;;;;;;10.73;2.05;;;8.30;65.90;;;;;;5055714;28;20064;-65
2021/12/01 12:31:21;;;;;;;12.43;2.75;;;8.30;65.50;;;;;;5028969;28;20049;-65
2021/12/01 12:33:51;;;;;;;8.60;2.22;;;8.30;65.20;;;;;;5039060;28;20073;-65
2021/12/01 12:36:39;;;;;;;18.73;2.92;;;8.20;66.60;;;;;;5051303;28;20049;-65
2021/12/01 12:39:28;;;;;;;13.80;2.17;;;8.10;68.20;;;;;;5042169;28;20037;-67
2021/12/01 12:41:54;;;;;;;12.70;1.67;;;7.90;70.10;;;;;;5027821;28;20060;-69
2021/12/01 12:44:40;;;;;;;17.48;3.55;;;7.90;70.40;;;;;;5026662;28;20049;-70
2021/12/01 12:47:08;;;;;;;11.48;2.33;;;7.80;70.90;;;;;;5028314;28;20038;-70
2021/12/01 12:49:47;;;;;;;13.40;2.53;;;7.70;72.80;;;;;;5024235;28;20481;-70
2021/12/01 12:52:26;;;;;;;9.68;2.33;;;7.70;72.40;;;;;;5027873;28;20443;-75
2021/12/01 12:55:23;;;;;;;6.40;1.45;;;7.80;70.30;;;;;;5026334;28;20044;-74
2021/12/01 12:57:51;;;;;;;8.88;2.38;;;7.90;69.90;;;;;;5010915;28;20546;-72
2021/12/01 13:00:27;;;;;;;16.23;3.70;;;8.00;68.10;;;;;;5028262;28;20850;-74
2021/12/01 13:02:56;;;;;;;8.88;1.80;;;8.00;68.20;;;;;;5027650;28;20046;-68
2021/12/01 13:05:39;;;;;;;5.93;1.90;;;8.00;69.10;;;;;;5027457;28;20054;-75
2021/12/01 13:08:42;;;;;;;8.88;2.00;;;8.00;67.30;;;;;;5027623;28;20045;-71
2021/12/01 13:11:14;;;;;;;9.70;2.13;;;7.90;67.80;;;;;;5029998;28;20057;-81
2021/12/01 13:13:48;;;;;;;9.48;1.73;;;7.90;68.70;;;;;;5048225;28;20399;-70
2021/12/01 13:16:18;;;;;;;13.40;3.10;;;7.80;69.20;;;;;;5047566;28;20441;-71
2021/12/01 13:32:36;;;;;;;13.60;2.63;;;7.70;67.70;;;;;;5305040;23;20061;-70
2021/12/01 13:35:04;;;;;;;16.52;3.83;;;7.70;67.60;;;;;;4873812;29;20380;-71
2021/12/01 13:37:30;;;;;;;12.20;2.53;;;7.60;68.80;;;;;;4874416;29;20565;-71
2021/12/01 13:39:56;;;;;;;11.75;1.90;;;7.50;68.90;;;;;;4867180;29;20084;-71
2021/12/01 13:42:24;;;;;;;9.63;1.90;;;7.50;68.80;;;;;;4850776;29;20116;-70
2021/12/01 13:44:51;;;;;;;15.27;3.15;;;7.50;69.20;;;;;;4893011;29;20040;-71
2021/12/01 13:47:20;;;;;;;5.70;1.45;;;7.40;70.20;;;;;;4890323;29;20272;-71
2021/12/01 13:49:47;;;;;;;9.30;2.00;;;7.40;69.10;;;;;;4892918;29;20052;-71
2021/12/01 13:52:34;;;;;;;13.95;2.60;;;7.30;70.70;;;;;;4888947;29;20045;-71
2021/12/01 13:55:22;;;;;;;9.07;2.10;;;7.30;72.30;;;;;;4892654;29;20831;-71
2021/12/01 13:58:07;;;;;;;11.10;2.45;;;7.20;72.10;;;;;;4892685;29;20080;-71
2021/12/01 14:00:56;;;;;;;18.52;4.05;;;7.30;71.60;;;;;;4904769;29;20044;-72
2021/12/01 14:03:22;;;;;;;6.20;1.38;;;7.30;70.30;;;;;;4892072;29;20479;-70
2021/12/01 14:05:53;;;;;;;7.03;2.00;;;7.30;70.40;;;;;;4874738;29;20135;-72